createdAt,value
2022-07-29T00:01:41.110Z,3.80
2022-07-29T00:04:09.239Z,3.60
2022-07-29T00:06:36.126Z,3.60
2022-07-29T00:09:03.152Z,4.10
2022-07-29T00:11:29.930Z,3.72
2022-07-29T00:13:56.717Z,3.47
2022-07-29T00:16:24.025Z,3.92
2022-07-29T00:18:51.050Z,3.80
2022-07-29T00:21:19.261Z,3.63
2022-07-29T00:23:46.115Z,3.97
2022-07-29T00:26:12.895Z,3.58
2022-07-29T00:28:39.705Z,3.67
2022-07-29T00:31:06.679Z,3.90
2022-07-29T00:33:33.494Z,3.83
2022-07-29T00:36:00.369Z,3.60
2022-07-29T00:38:28.557Z,3.70
2022-07-29T00:40:55.378Z,4.15
2022-07-29T00:43:22.127Z,3.65
2022-07-29T00:45:49.053Z,3.97
2022-07-29T00:48:15.887Z,3.78
2022-07-29T00:50:42.717Z,3.60
2022-07-29T00:53:09.903Z,4.55
2022-07-29T00:55:38.536Z,3.50
2022-07-29T00:58:05.838Z,4.00
2022-07-29T01:00:32.894Z,4.20
2022-07-29T01:02:59.914Z,3.80
2022-07-29T01:05:48.484Z,3.95
2022-07-29T01:08:17.767Z,3.60
2022-07-29T01:10:47.848Z,3.95
2022-07-29T01:13:17.086Z,3.85
2022-07-29T01:15:49.186Z,3.78
2022-07-29T01:18:22.413Z,4.15
2022-07-29T01:21:08.776Z,3.85
2022-07-29T01:23:57.760Z,3.75
2022-07-29T01:26:39.854Z,3.67
2022-07-29T01:29:13.699Z,4.22
2022-07-29T01:31:59.563Z,3.88
2022-07-29T01:34:36.326Z,4.07
2022-07-29T01:37:09.222Z,3.50
2022-07-29T01:42:15.463Z,3.92
2022-07-29T01:44:54.826Z,3.53
2022-07-29T01:47:26.427Z,4.03
2022-07-29T01:49:57.616Z,3.97
2022-07-29T01:52:28.726Z,4.53
2022-07-29T01:54:59.418Z,3.80
2022-07-29T01:57:29.342Z,4.82
2022-07-29T01:59:59.330Z,4.03
2022-07-29T02:02:28.828Z,4.13
2022-07-29T02:04:57.181Z,4.10
2022-07-29T02:07:26.929Z,4.30
2022-07-29T02:09:54.631Z,4.05
2022-07-29T02:12:22.873Z,4.68
2022-07-29T02:14:53.645Z,4.28
2022-07-29T02:17:25.884Z,4.40
2022-07-29T02:19:55.587Z,4.28
2022-07-29T02:22:23.770Z,4.70
2022-07-29T02:24:52.385Z,4.90
2022-07-29T02:27:20.745Z,4.35
2022-07-29T02:29:48.545Z,4.78
2022-07-29T02:32:17.246Z,4.18
2022-07-29T02:34:46.891Z,4.43
2022-07-29T02:37:15.051Z,4.47
2022-07-29T02:39:43.526Z,4.20
2022-07-29T02:42:14.719Z,4.53
2022-07-29T02:44:41.681Z,4.70
2022-07-29T02:47:14.437Z,4.13
2022-07-29T02:49:49.509Z,4.07
2022-07-29T02:52:22.609Z,4.30
2022-07-29T02:54:55.731Z,4.15
2022-07-29T02:57:29.702Z,4.80
2022-07-29T02:59:59.784Z,4.90
2022-07-29T03:02:28.137Z,4.88
2022-07-29T03:04:58.694Z,4.65
2022-07-29T03:07:28.669Z,4.60
2022-07-29T03:09:56.583Z,3.97
2022-07-29T03:12:23.707Z,4.70
2022-07-29T03:14:50.683Z,4.75
2022-07-29T03:17:17.855Z,4.47
2022-07-29T03:19:44.983Z,4.40
2022-07-29T03:22:13.222Z,4.82
2022-07-29T03:24:39.967Z,5.28
2022-07-29T03:27:06.849Z,5.00
2022-07-29T03:29:34.640Z,4.57
2022-07-29T03:32:07.107Z,4.80
2022-07-29T03:34:34.673Z,5.00
2022-07-29T03:37:01.492Z,4.60
2022-07-29T03:39:36.006Z,5.03
2022-07-29T03:42:04.463Z,4.60
2022-07-29T03:44:32.743Z,5.20
2022-07-29T03:47:02.929Z,5.32
2022-07-29T03:49:31.923Z,4.93
2022-07-29T03:51:58.800Z,4.28
2022-07-29T03:54:25.653Z,4.78
2022-07-29T03:56:55.062Z,5.00
2022-07-29T03:59:23.456Z,5.10
2022-07-29T04:01:50.990Z,4.78
2022-07-29T04:04:18.390Z,4.88
2022-07-29T04:06:46.432Z,4.63
2022-07-29T04:09:15.215Z,5.20
2022-07-29T04:12:02.146Z,5.22
2022-07-29T04:14:31.907Z,4.85
2022-07-29T04:16:58.938Z,4.40
2022-07-29T04:19:25.679Z,5.10
2022-07-29T04:21:52.695Z,4.72
2022-07-29T04:24:19.842Z,4.75
2022-07-29T04:26:47.858Z,4.47
2022-07-29T04:29:15.449Z,4.80
2022-07-29T04:31:44.018Z,4.75
2022-07-29T04:34:11.450Z,4.85
2022-07-29T04:36:38.232Z,5.18
2022-07-29T04:39:05.163Z,4.75
2022-07-29T04:41:33.016Z,4.95
2022-07-29T04:44:01.871Z,5.28
2022-07-29T04:46:29.062Z,4.97
2022-07-29T04:48:57.317Z,4.75
2022-07-29T04:51:24.130Z,4.60
2022-07-29T04:53:50.939Z,4.68
2022-07-29T04:56:17.705Z,4.57
2022-07-29T04:58:44.471Z,4.60
2022-07-29T05:01:11.436Z,5.20
2022-07-29T05:03:38.387Z,5.00
2022-07-29T05:06:06.579Z,4.80
2022-07-29T05:08:33.383Z,4.95
2022-07-29T05:11:11.612Z,4.95
2022-07-29T05:13:46.061Z,5.00
2022-07-29T05:16:14.765Z,4.80
2022-07-29T05:18:41.641Z,4.63
2022-07-29T05:21:09.807Z,4.80
2022-07-29T05:23:36.597Z,5.05
2022-07-29T05:26:03.408Z,4.68
2022-07-29T05:28:30.206Z,4.32
2022-07-29T05:30:57.326Z,4.95
2022-07-29T05:33:35.544Z,4.90
2022-07-29T05:36:06.342Z,4.70
2022-07-29T05:38:34.698Z,4.65
2022-07-29T05:41:01.554Z,5.22
2022-07-29T05:43:28.963Z,4.72
2022-07-29T05:45:55.853Z,5.47
2022-07-29T05:48:22.683Z,4.93
2022-07-29T05:50:49.455Z,4.88
2022-07-29T05:53:19.118Z,4.88
2022-07-29T05:55:48.454Z,4.95
2022-07-29T05:58:15.250Z,4.63
2022-07-29T06:00:42.123Z,5.47
2022-07-29T06:03:08.871Z,4.97
2022-07-29T06:05:35.651Z,5.00
2022-07-29T06:08:02.566Z,4.93
2022-07-29T06:10:29.458Z,4.63
2022-07-29T06:12:57.597Z,4.72
2022-07-29T06:15:24.334Z,5.07
2022-07-29T06:18:00.566Z,4.38
2022-07-29T06:20:30.703Z,5.32
2022-07-29T06:22:58.011Z,4.78
2022-07-29T06:25:24.786Z,5.43
2022-07-29T06:27:51.553Z,5.15
2022-07-29T06:30:19.824Z,4.63
2022-07-29T06:32:47.039Z,5.22
2022-07-29T06:38:01.678Z,5.25
2022-07-29T06:40:47.526Z,5.63
2022-07-29T06:43:14.435Z,5.10
2022-07-29T06:45:43.819Z,4.85
2022-07-29T06:48:10.881Z,5.10
2022-07-29T06:50:37.685Z,4.82
2022-07-29T06:53:04.903Z,4.78
2022-07-29T06:55:31.827Z,4.85
2022-07-29T06:57:58.583Z,4.40
2022-07-29T07:00:25.695Z,4.90
2022-07-29T07:02:53.905Z,4.57
2022-07-29T07:05:20.900Z,4.53
2022-07-29T07:07:47.787Z,4.75
2022-07-29T07:10:14.632Z,4.70
2022-07-29T07:12:41.422Z,4.20
2022-07-29T07:15:08.732Z,4.63
2022-07-29T07:17:35.542Z,4.90
2022-07-29T07:20:05.763Z,4.30
2022-07-29T07:22:36.967Z,3.78
2022-07-29T07:27:32.475Z,4.43
2022-07-29T07:29:59.226Z,3.90
2022-07-29T07:32:26.057Z,4.25
2022-07-29T07:34:52.902Z,4.35
2022-07-29T07:37:21.501Z,4.45
2022-07-29T07:39:48.291Z,4.20
2022-07-29T07:42:15.035Z,4.30
2022-07-29T07:45:03.668Z,4.40
2022-07-29T07:47:28.579Z,4.78
2022-07-29T07:49:55.406Z,4.38
2022-07-29T07:52:23.539Z,4.15
2022-07-29T07:54:50.715Z,3.83
2022-07-29T07:57:17.557Z,3.85
2022-07-29T07:59:44.357Z,4.20
2022-07-29T08:02:11.426Z,3.72
2022-07-29T08:04:39.984Z,3.92
2022-07-29T08:07:06.893Z,4.47
2022-07-29T08:09:35.405Z,4.18
2022-07-29T08:12:06.839Z,4.70
2022-07-29T08:14:34.405Z,4.20
2022-07-29T08:17:01.396Z,4.55
2022-07-29T08:19:28.313Z,4.05
2022-07-29T08:21:55.622Z,3.88
2022-07-29T08:24:41.398Z,4.03
2022-07-29T08:27:26.914Z,4.10
2022-07-29T08:29:56.844Z,3.65
2022-07-29T08:32:43.754Z,3.90
2022-07-29T08:35:10.634Z,3.47
2022-07-29T08:37:37.384Z,3.53
2022-07-29T08:40:05.038Z,4.00
2022-07-29T08:42:33.207Z,4.00
2022-07-29T08:45:00.146Z,3.92
2022-07-29T08:47:28.600Z,4.07
2022-07-29T08:49:55.418Z,3.53
2022-07-29T08:52:24.916Z,4.45
2022-07-29T08:54:53.917Z,3.55
2022-07-29T08:57:22.150Z,3.92
2022-07-29T08:59:53.326Z,3.50
2022-07-29T09:02:21.893Z,3.67
2022-07-29T09:04:49.164Z,3.67
2022-07-29T09:07:17.687Z,3.95
2022-07-29T09:09:44.429Z,3.53
2022-07-29T09:12:28.679Z,4.15
2022-07-29T09:14:58.120Z,3.75
2022-07-29T09:17:43.806Z,3.63
2022-07-29T09:20:12.660Z,4.07
2022-07-29T09:22:42.024Z,4.32
2022-07-29T09:25:09.471Z,4.50
2022-07-29T09:27:36.871Z,4.10
2022-07-29T09:30:07.847Z,4.40
2022-07-29T09:32:54.399Z,4.47
2022-07-29T09:35:22.990Z,4.35
2022-07-29T09:37:50.155Z,4.25
2022-07-29T09:40:18.356Z,4.65
2022-07-29T09:42:45.897Z,4.65
2022-07-29T09:45:26.461Z,4.65
2022-07-29T09:47:53.261Z,4.35
2022-07-29T09:50:24.786Z,4.47
2022-07-29T09:52:53.052Z,4.20
2022-07-29T09:55:20.274Z,4.93
2022-07-29T09:57:47.743Z,4.35
2022-07-29T10:00:18.713Z,4.20
2022-07-29T10:02:47.080Z,4.47
2022-07-29T10:05:22.200Z,4.45
2022-07-29T10:07:53.713Z,4.80
2022-07-29T10:10:22.740Z,4.05
2022-07-29T10:12:51.374Z,4.25
2022-07-29T10:15:20.146Z,4.47
2022-07-29T10:17:47.758Z,4.00
2022-07-29T10:20:16.556Z,4.63
2022-07-29T10:22:53.111Z,4.43
2022-07-29T10:25:21.543Z,4.28
2022-07-29T10:27:50.051Z,4.57
2022-07-29T10:30:19.202Z,4.40
2022-07-29T10:33:15.930Z,4.60
2022-07-29T10:35:55.264Z,4.80
2022-07-29T10:41:47.980Z,4.20
2022-07-29T10:44:19.423Z,4.28
2022-07-29T10:46:52.364Z,4.35
2022-07-29T10:49:24.739Z,4.55
2022-07-29T10:52:00.866Z,4.13
2022-07-29T10:54:54.581Z,4.35
2022-07-29T10:57:53.165Z,4.10
2022-07-29T11:00:29.451Z,3.83
2022-07-29T11:02:59.186Z,4.45
2022-07-29T11:05:32.243Z,3.97
2022-07-29T11:08:26.125Z,3.80
2022-07-29T11:11:15.743Z,3.92
2022-07-29T11:13:52.337Z,4.15
2022-07-29T11:16:23.141Z,3.67
2022-07-29T11:19:26.675Z,3.58
2022-07-29T11:21:58.509Z,3.92
2022-07-29T11:24:30.372Z,3.97
2022-07-29T11:27:13.196Z,3.73
2022-07-29T11:29:49.980Z,3.90
2022-07-29T11:32:23.138Z,3.70
2022-07-29T11:35:17.601Z,3.72
2022-07-29T11:37:45.905Z,3.55
2022-07-29T11:40:20.234Z,3.47
2022-07-29T11:42:50.250Z,3.55
2022-07-29T11:45:47.193Z,3.35
2022-07-29T11:48:29.821Z,3.67
2022-07-29T11:51:00.778Z,3.63
2022-07-29T11:53:29.043Z,3.78
2022-07-29T11:56:00.800Z,3.10
2022-07-29T11:58:49.350Z,3.05
2022-07-29T12:01:18.170Z,3.47
2022-07-29T12:03:45.149Z,3.55
2022-07-29T12:06:18.350Z,3.88
2022-07-29T12:08:47.940Z,3.33
2022-07-29T12:11:21.428Z,3.15
2022-07-29T12:13:49.690Z,3.28
2022-07-29T12:16:25.080Z,3.03
2022-07-29T12:18:59.394Z,3.53
2022-07-29T12:21:28.744Z,3.35
2022-07-29T12:23:57.714Z,3.15
2022-07-29T12:26:28.873Z,3.08
2022-07-29T12:28:55.721Z,3.28
2022-07-29T12:31:42.373Z,3.00
2022-07-29T12:34:10.983Z,3.10
2022-07-29T12:36:39.515Z,3.25
2022-07-29T12:39:06.418Z,3.13
2022-07-29T12:41:33.240Z,3.40
2022-07-29T12:44:00.037Z,2.88
2022-07-29T12:46:26.903Z,2.90
2022-07-29T12:48:55.716Z,2.88
2022-07-29T12:51:30.001Z,2.75
2022-07-29T12:54:06.131Z,2.80
2022-07-29T12:56:42.723Z,2.90
2022-07-29T12:59:15.301Z,2.80
2022-07-29T13:01:42.172Z,3.13
2022-07-29T13:04:08.951Z,3.30
2022-07-29T13:06:39.262Z,3.13
2022-07-29T13:09:11.700Z,2.83
2022-07-29T13:11:44.031Z,2.90
2022-07-29T13:14:15.367Z,2.95
2022-07-29T13:17:04.960Z,2.55
2022-07-29T13:19:37.455Z,2.75
2022-07-29T13:22:05.085Z,2.90
2022-07-29T13:24:33.396Z,2.70
2022-07-29T13:27:00.753Z,2.65
2022-07-29T13:29:31.655Z,2.70
2022-07-29T13:31:59.221Z,3.08
2022-07-29T13:34:26.310Z,2.83
2022-07-29T13:36:53.121Z,3.30
2022-07-29T13:39:19.907Z,3.05
2022-07-29T13:41:48.030Z,2.90
2022-07-29T13:44:15.980Z,3.17
2022-07-29T13:46:42.769Z,2.92
2022-07-29T13:49:09.580Z,3.30
2022-07-29T13:51:36.423Z,3.05
2022-07-29T13:54:03.351Z,2.88
2022-07-29T13:56:30.105Z,2.95
2022-07-29T13:58:58.248Z,2.90
2022-07-29T14:01:25.529Z,2.80
2022-07-29T14:03:55.481Z,3.35
2022-07-29T14:06:22.749Z,2.95
2022-07-29T14:08:49.675Z,3.30
2022-07-29T14:11:16.479Z,3.42
2022-07-29T14:13:43.257Z,3.60
2022-07-29T14:16:11.664Z,3.17
2022-07-29T14:18:38.440Z,3.40
2022-07-29T14:21:05.255Z,2.85
2022-07-29T14:23:32.298Z,3.13
2022-07-29T14:25:59.117Z,2.58
2022-07-29T14:28:25.891Z,2.65
2022-07-29T14:30:52.748Z,3.33
2022-07-29T14:33:20.912Z,3.15
2022-07-29T14:35:47.675Z,3.15
2022-07-29T14:38:14.506Z,2.90
2022-07-29T14:40:41.439Z,3.53
2022-07-29T14:43:08.244Z,3.00
2022-07-29T14:45:35.231Z,2.72
2022-07-29T14:48:02.186Z,3.05
2022-07-29T14:50:31.876Z,2.67
2022-07-29T14:52:59.193Z,3.00
2022-07-29T14:55:26.446Z,3.35
2022-07-29T14:57:58.573Z,2.97
2022-07-29T15:00:35.166Z,2.70
2022-07-29T15:03:03.041Z,2.20
2022-07-29T15:05:32.071Z,2.90
2022-07-29T15:07:59.706Z,2.63
2022-07-29T15:10:29.716Z,2.10
2022-07-29T15:12:57.218Z,2.47
2022-07-29T15:15:24.221Z,2.33
2022-07-29T15:17:51.103Z,1.90
2022-07-29T15:20:17.952Z,2.05
2022-07-29T15:22:46.052Z,1.98
2022-07-29T15:25:13.229Z,2.28
2022-07-29T15:27:40.052Z,2.40
2022-07-29T15:30:08.356Z,1.95
2022-07-29T15:32:35.168Z,1.83
2022-07-29T15:35:02.051Z,2.13
2022-07-29T15:37:29.332Z,1.85
2022-07-29T15:40:17.611Z,1.70
2022-07-29T15:42:44.364Z,2.15
2022-07-29T15:45:11.537Z,1.75
2022-07-29T15:47:38.455Z,1.85
2022-07-29T15:50:07.330Z,1.85
2022-07-29T15:52:34.112Z,1.70
2022-07-29T15:55:00.840Z,1.90
2022-07-29T15:57:28.963Z,2.00
2022-07-29T15:59:55.818Z,2.10
2022-07-29T16:02:22.645Z,1.85
2022-07-29T16:04:49.506Z,1.90
2022-07-29T16:07:16.762Z,1.95
2022-07-29T16:09:43.726Z,1.70
2022-07-29T16:12:15.071Z,1.90
2022-07-29T16:14:44.173Z,1.70
2022-07-29T16:17:14.713Z,1.88
2022-07-29T16:19:42.171Z,1.70
2022-07-29T16:22:09.187Z,1.50
2022-07-29T16:24:35.932Z,1.70
2022-07-29T16:27:02.939Z,1.45
2022-07-29T16:29:29.742Z,1.90
2022-07-29T16:31:58.001Z,1.73
2022-07-29T16:34:24.791Z,1.88
2022-07-29T16:36:51.575Z,1.83
2022-07-29T16:39:18.352Z,1.50
2022-07-29T16:41:45.125Z,1.60
2022-07-29T16:44:11.995Z,1.70
2022-07-29T16:46:39.618Z,1.52
2022-07-29T16:49:09.639Z,1.67
2022-07-29T16:51:36.437Z,1.50
2022-07-29T16:54:03.204Z,1.60
2022-07-29T16:56:30.068Z,1.30
2022-07-29T16:58:57.603Z,1.75
2022-07-29T17:01:24.418Z,1.50
2022-07-29T17:04:06.308Z,1.50
2022-07-29T17:06:35.102Z,1.80
2022-07-29T17:09:03.019Z,1.50
2022-07-29T17:11:52.941Z,1.58
2022-07-29T17:14:16.627Z,1.90
2022-07-29T17:16:51.739Z,1.80
2022-07-29T17:19:29.598Z,1.58
2022-07-29T17:22:05.012Z,1.65
2022-07-29T17:24:35.893Z,1.73
2022-07-29T17:27:02.706Z,1.60
2022-07-29T17:29:29.459Z,1.65
2022-07-29T17:31:57.631Z,1.77
2022-07-29T17:34:24.367Z,2.13
2022-07-29T17:36:51.144Z,1.70
2022-07-29T17:39:19.307Z,1.60
2022-07-29T17:41:46.928Z,1.90
2022-07-29T17:44:13.761Z,2.00
2022-07-29T17:46:40.917Z,1.90
2022-07-29T17:49:07.893Z,1.92
2022-07-29T17:51:34.688Z,1.75
2022-07-29T17:54:01.441Z,1.70
2022-07-29T17:56:29.619Z,1.80
2022-07-29T17:58:56.994Z,1.85
2022-07-29T18:01:23.864Z,2.55
2022-07-29T18:03:50.784Z,3.40
2022-07-29T18:06:17.934Z,2.55
2022-07-29T18:08:47.442Z,2.60
2022-07-29T18:11:15.074Z,3.92
2022-07-29T18:13:43.389Z,2.40
2022-07-29T18:16:10.810Z,2.83
2022-07-29T18:18:37.690Z,2.50
2022-07-29T18:21:04.711Z,2.28
2022-07-29T18:23:31.902Z,2.00
2022-07-29T18:25:58.782Z,2.40
2022-07-29T18:28:25.557Z,2.72
2022-07-29T18:30:54.466Z,2.33
2022-07-29T18:33:22.518Z,2.35
2022-07-29T18:35:52.392Z,2.85
2022-07-29T18:38:36.961Z,4.45
2022-07-29T18:41:04.027Z,4.60
2022-07-29T18:43:30.835Z,2.22
2022-07-29T18:45:58.945Z,2.20
2022-07-29T18:48:25.714Z,6.95
2022-07-29T18:50:52.518Z,2.35
2022-07-29T18:53:19.350Z,2.67
2022-07-29T18:55:46.291Z,2.05
2022-07-29T18:58:13.100Z,2.28
2022-07-29T19:00:39.833Z,2.40
2022-07-29T19:03:09.904Z,2.10
2022-07-29T19:05:36.770Z,2.30
2022-07-29T19:08:03.674Z,2.30
2022-07-29T19:10:30.828Z,2.70
2022-07-29T19:12:57.778Z,2.70
2022-07-29T19:15:24.837Z,1.98
2022-07-29T19:17:51.645Z,2.50
2022-07-29T19:20:20.070Z,2.63
2022-07-29T19:22:46.821Z,2.35
2022-07-29T19:25:13.588Z,2.22
2022-07-29T19:27:42.010Z,2.30
2022-07-29T19:30:09.554Z,2.33
2022-07-29T19:32:36.810Z,2.63
2022-07-29T19:35:24.065Z,2.28
2022-07-29T19:37:52.953Z,2.47
2022-07-29T19:40:19.990Z,2.10
2022-07-29T19:42:51.514Z,2.28
2022-07-29T19:45:19.259Z,2.40
2022-07-29T19:47:46.406Z,2.30
2022-07-29T19:50:13.698Z,2.15
2022-07-29T19:52:40.449Z,2.10
2022-07-29T19:55:09.748Z,3.15
2022-07-29T19:57:40.988Z,2.50
2022-07-29T20:00:11.404Z,2.25
2022-07-29T20:02:40.071Z,2.40
2022-07-29T20:05:08.046Z,2.20
2022-07-29T20:07:35.038Z,2.47
2022-07-29T20:10:01.845Z,2.10
2022-07-29T20:12:29.981Z,2.45
2022-07-29T20:14:56.937Z,2.10
2022-07-29T20:17:23.727Z,1.98
2022-07-29T20:19:51.155Z,2.35
2022-07-29T20:22:21.259Z,2.20
2022-07-29T20:24:48.942Z,2.03
2022-07-29T20:27:15.682Z,2.47
2022-07-29T20:29:43.781Z,2.63
2022-07-29T20:32:12.369Z,2.58
2022-07-29T20:34:41.203Z,2.55
2022-07-29T20:37:11.198Z,2.28
2022-07-29T20:39:38.105Z,2.40
2022-07-29T20:42:05.791Z,2.53
2022-07-29T20:44:32.546Z,2.10
2022-07-29T20:47:01.330Z,2.63
2022-07-29T20:49:28.475Z,2.45
2022-07-29T20:51:55.268Z,2.22
2022-07-29T20:54:22.051Z,2.22
2022-07-29T20:56:48.799Z,2.20
2022-07-29T20:59:15.626Z,2.15
2022-07-29T21:01:42.458Z,2.20
2022-07-29T21:04:10.682Z,3.15
2022-07-29T21:06:37.483Z,2.13
2022-07-29T21:09:04.360Z,2.90
2022-07-29T21:11:43.690Z,2.65
2022-07-29T21:14:46.875Z,3.80
2022-07-29T21:17:14.430Z,4.22
2022-07-29T21:19:42.731Z,2.40
2022-07-29T21:22:09.609Z,2.00
2022-07-29T21:24:36.429Z,2.45
2022-07-29T21:27:22.229Z,2.60
2022-07-29T21:29:49.370Z,2.47
2022-07-29T21:32:27.257Z,2.40
2022-07-29T21:34:57.889Z,2.30
2022-07-29T21:37:24.879Z,2.42
2022-07-29T21:39:51.672Z,2.53
2022-07-29T21:42:18.442Z,2.40
2022-07-29T21:44:45.446Z,2.15
2022-07-29T21:47:12.326Z,2.10
2022-07-29T21:49:39.109Z,2.60
2022-07-29T21:52:08.061Z,1.98
2022-07-29T21:54:35.874Z,2.40
2022-07-29T21:57:03.210Z,2.53
2022-07-29T21:59:30.483Z,2.30
2022-07-29T22:02:00.741Z,2.17
2022-07-29T22:04:27.941Z,2.30
2022-07-29T22:06:54.785Z,2.33
2022-07-29T22:09:22.971Z,2.30
2022-07-29T22:11:49.760Z,2.38
2022-07-29T22:14:18.523Z,4.72
2022-07-29T22:16:45.607Z,3.58
2022-07-29T22:19:12.726Z,2.85
2022-07-29T22:21:39.634Z,3.78
2022-07-29T22:24:07.313Z,2.47
2022-07-29T22:26:38.225Z,2.28
2022-07-29T22:29:05.224Z,2.53
2022-07-29T22:31:32.047Z,2.55
2022-07-29T22:33:58.842Z,2.10
2022-07-29T22:36:26.039Z,1.85
2022-07-29T22:38:52.786Z,2.10
2022-07-29T22:41:19.539Z,2.20
2022-07-29T22:43:47.637Z,2.17
2022-07-29T22:46:14.543Z,2.28
2022-07-29T22:48:41.398Z,2.22
2022-07-29T22:51:08.255Z,1.80
2022-07-29T22:53:35.957Z,2.13
2022-07-29T22:56:02.861Z,2.10
2022-07-29T22:58:29.702Z,2.40
2022-07-29T23:00:57.922Z,2.17
2022-07-29T23:03:24.811Z,2.35
2022-07-29T23:05:51.929Z,2.70
2022-07-29T23:08:18.880Z,2.50
2022-07-29T23:10:45.742Z,2.75
2022-07-29T23:13:12.511Z,2.50
2022-07-29T23:15:39.290Z,2.35
2022-07-29T23:18:07.431Z,2.70
2022-07-29T23:20:34.369Z,2.28
2022-07-29T23:23:01.157Z,2.42
2022-07-29T23:25:27.981Z,4.05
2022-07-29T23:27:54.913Z,3.90
2022-07-29T23:30:21.697Z,2.50
2022-07-29T23:32:48.709Z,2.70
2022-07-29T23:35:16.811Z,2.60
2022-07-29T23:37:43.571Z,2.78
2022-07-29T23:40:14.407Z,2.90
2022-07-29T23:42:42.443Z,2.70
2022-07-29T23:45:10.225Z,2.80
2022-07-29T23:47:36.975Z,3.03
2022-07-29T23:50:04.161Z,2.97
2022-07-29T23:52:32.458Z,2.90
2022-07-29T23:55:37.464Z,2.90
2022-07-29T23:57:46.077Z,3.03
